createdAt,value
2019-03-21T00:04:27.487Z,192.00
2019-03-21T00:09:29.218Z,148.17
2019-03-21T00:14:57.461Z,180.73
2019-03-21T00:19:59.122Z,147.50
2019-03-21T00:25:00.816Z,166.50
2019-03-21T00:30:06.197Z,168.93
2019-03-21T00:35:09.424Z,175.03
2019-03-21T00:40:20.432Z,170.27
2019-03-21T00:45:22.316Z,169.93
2019-03-21T00:50:26.441Z,160.13
2019-03-21T00:55:31.427Z,169.60
2019-03-21T01:00:36.538Z,129.63
2019-03-21T01:05:39.459Z,174.50
2019-03-21T01:10:45.589Z,156.10
2019-03-21T01:15:52.868Z,165.80
2019-03-21T01:20:56.585Z,145.73
2019-03-21T01:26:06.646Z,193.97
2019-03-21T01:31:08.484Z,176.40
2019-03-21T01:36:10.441Z,178.20
2019-03-21T01:41:15.842Z,180.90
2019-03-21T01:46:20.585Z,187.30
2019-03-21T01:51:22.513Z,144.83
2019-03-21T01:56:26.933Z,220.27
2019-03-21T02:01:29.744Z,210.10
2019-03-21T02:06:31.452Z,247.27
2019-03-21T02:11:35.358Z,216.57
2019-03-21T02:16:36.996Z,192.10
2019-03-21T02:21:38.685Z,252.63
2019-03-21T02:26:40.335Z,264.10
2019-03-21T02:31:41.989Z,247.67
2019-03-21T02:36:44.552Z,212.70
2019-03-21T02:41:46.262Z,226.23
2019-03-21T02:46:47.989Z,193.40
2019-03-21T02:51:49.821Z,184.57
2019-03-21T02:56:51.624Z,170.10
2019-03-21T03:01:53.329Z,163.53
2019-03-21T03:06:55.027Z,187.73
2019-03-21T03:11:56.839Z,166.70
2019-03-21T03:16:59.050Z,206.03
2019-03-21T03:22:00.853Z,167.67
2019-03-21T03:27:02.753Z,167.40
2019-03-21T03:32:04.469Z,173.33
2019-03-21T03:37:06.207Z,205.47
2019-03-21T03:42:07.861Z,191.47
2019-03-21T03:47:09.652Z,189.77
2019-03-21T03:52:11.451Z,173.70
2019-03-21T03:57:13.148Z,180.83
2019-03-21T04:02:14.952Z,183.47
2019-03-21T04:07:16.653Z,171.30
2019-03-21T04:12:18.354Z,135.50
2019-03-21T04:17:20.450Z,167.63
2019-03-21T04:22:22.141Z,139.90
2019-03-21T04:27:23.844Z,142.70
2019-03-21T04:32:25.526Z,156.70
2019-03-21T04:37:27.222Z,128.93
2019-03-21T04:42:28.913Z,139.67
2019-03-21T04:47:30.814Z,147.37
2019-03-21T04:52:32.513Z,161.47
2019-03-21T04:57:34.582Z,163.67
2019-03-21T05:02:36.346Z,148.30
2019-03-21T05:07:38.019Z,164.87
2019-03-21T05:12:40.168Z,163.30
2019-03-21T05:17:42.136Z,191.33
2019-03-21T05:22:44.151Z,215.93
2019-03-21T05:27:45.809Z,173.67
2019-03-21T05:32:47.449Z,181.23
2019-03-21T05:37:49.133Z,171.93
2019-03-21T05:43:12.560Z,149.40
2019-03-21T05:48:15.341Z,213.60
2019-03-21T05:53:17.491Z,217.13
2019-03-21T05:59:26.967Z,237.83
2019-03-21T06:04:29.173Z,222.40
2019-03-21T06:09:31.093Z,223.03
2019-03-21T06:14:37.222Z,269.63
2019-03-21T06:19:55.147Z,176.43
2019-03-21T06:25:18.809Z,162.17
2019-03-21T06:30:20.676Z,179.30
2019-03-21T06:35:22.688Z,214.43
2019-03-21T06:40:24.452Z,204.57
2019-03-21T06:45:26.292Z,185.60
2019-03-21T06:50:28.931Z,202.27
2019-03-21T06:55:30.821Z,182.37
2019-03-21T07:00:43.602Z,199.23
2019-03-21T07:05:53.009Z,147.60
2019-03-21T07:10:54.987Z,163.30
2019-03-21T07:15:57.380Z,166.23
2019-03-21T07:21:01.138Z,176.37
2019-03-21T07:26:03.605Z,134.17
2019-03-21T07:31:08.515Z,117.57
2019-03-21T07:36:11.135Z,158.23
2019-03-21T07:41:12.920Z,139.43
2019-03-21T07:46:15.210Z,152.17
2019-03-21T07:51:19.570Z,161.90
2019-03-21T07:56:24.955Z,183.43
2019-03-21T08:01:27.039Z,237.47
2019-03-21T08:06:29.320Z,252.17
2019-03-21T08:11:31.313Z,259.93
2019-03-21T08:16:33.099Z,248.53
2019-03-21T08:21:34.913Z,254.87
2019-03-21T08:26:37.112Z,251.67
2019-03-21T08:31:38.778Z,237.60
2019-03-21T08:36:47.022Z,216.50
2019-03-21T08:41:54.921Z,225.80
2019-03-21T08:46:57.512Z,222.30
2019-03-21T08:51:59.256Z,226.27
2019-03-21T08:57:01.424Z,185.70
2019-03-21T09:02:03.095Z,141.07
2019-03-21T09:07:05.096Z,155.43
2019-03-21T09:12:06.794Z,155.67
2019-03-21T09:17:08.755Z,158.07
2019-03-21T09:22:10.513Z,137.83
2019-03-21T09:27:12.703Z,125.87
2019-03-21T09:32:14.438Z,125.07
2019-03-21T09:37:16.129Z,134.73
2019-03-21T09:42:17.771Z,138.37
2019-03-21T09:47:19.506Z,112.93
2019-03-21T09:52:21.591Z,117.93
2019-03-21T09:57:23.900Z,133.77
2019-03-21T10:02:31.865Z,115.90
2019-03-21T10:07:33.705Z,123.47
2019-03-21T10:12:35.514Z,90.20
2019-03-21T10:17:37.159Z,131.57
2019-03-21T10:22:40.122Z,133.73
2019-03-21T10:27:42.151Z,137.50
2019-03-21T10:32:43.857Z,155.43
2019-03-21T10:37:45.555Z,167.83
2019-03-21T10:42:47.205Z,156.37
2019-03-21T10:47:48.913Z,154.97
2019-03-21T10:52:50.645Z,141.23
2019-03-21T10:57:53.067Z,155.13
2019-03-21T11:02:54.827Z,168.70
2019-03-21T11:07:56.518Z,145.37
2019-03-21T11:12:58.221Z,132.07
2019-03-21T11:17:59.835Z,170.27
2019-03-21T11:23:01.572Z,165.97
2019-03-21T11:28:04.977Z,186.17
2019-03-21T11:33:06.858Z,164.87
2019-03-21T11:38:08.508Z,182.63
2019-03-21T11:43:10.459Z,173.60
2019-03-21T11:48:12.132Z,171.10
2019-03-21T11:53:13.880Z,159.27
2019-03-21T11:58:17.653Z,185.50
2019-03-21T12:03:19.682Z,177.70
2019-03-21T12:08:21.503Z,163.77
2019-03-21T12:13:23.098Z,185.43
2019-03-21T12:18:24.811Z,172.83
2019-03-21T12:23:26.504Z,158.30
2019-03-21T12:28:28.505Z,167.53
2019-03-21T12:33:30.130Z,158.70
2019-03-21T12:38:31.772Z,163.63
2019-03-21T12:43:33.555Z,145.77
2019-03-21T12:48:35.255Z,143.53
2019-03-21T12:53:37.039Z,136.37
2019-03-21T12:58:39.343Z,154.07
2019-03-21T13:03:41.019Z,153.27
2019-03-21T13:08:42.750Z,142.20
2019-03-21T13:13:44.443Z,141.73
2019-03-21T13:18:46.087Z,147.63
2019-03-21T13:23:47.714Z,136.33
2019-03-21T13:28:50.189Z,127.00
2019-03-21T13:33:51.829Z,142.10
2019-03-21T13:38:53.496Z,146.37
2019-03-21T13:43:55.162Z,130.03
2019-03-21T13:48:57.278Z,138.23
2019-03-21T13:54:16.616Z,126.37
2019-03-21T13:59:20.519Z,115.80
2019-03-21T14:04:22.151Z,143.47
2019-03-21T14:09:23.854Z,133.40
2019-03-21T14:14:25.443Z,127.20
2019-03-21T14:19:27.509Z,176.77
2019-03-21T14:24:29.134Z,122.57
2019-03-21T14:29:37.721Z,135.27
2019-03-21T14:34:40.933Z,138.23
2019-03-21T14:39:48.059Z,148.63
2019-03-21T14:44:50.402Z,163.13
2019-03-21T14:49:53.210Z,158.73
2019-03-21T14:54:58.708Z,157.83
2019-03-21T15:00:00.348Z,180.53
2019-03-21T15:05:04.712Z,171.97
2019-03-21T15:10:14.901Z,161.47
2019-03-21T15:15:16.780Z,184.37
2019-03-21T15:20:18.504Z,173.33
2019-03-21T15:25:20.392Z,175.17
2019-03-21T15:30:22.316Z,198.67
2019-03-21T15:35:24.544Z,210.13
2019-03-21T15:40:26.732Z,202.23
2019-03-21T15:45:28.585Z,218.50
2019-03-21T15:50:33.001Z,230.10
2019-03-21T15:55:37.160Z,213.93
2019-03-21T16:00:41.137Z,204.63
2019-03-21T16:05:43.198Z,233.80
2019-03-21T16:10:44.851Z,238.53
2019-03-21T16:15:46.524Z,167.90
2019-03-21T16:20:48.159Z,249.60
2019-03-21T16:25:49.820Z,241.50
2019-03-21T16:30:51.454Z,269.10
2019-03-21T16:35:53.822Z,262.53
2019-03-21T16:40:55.513Z,250.37
2019-03-21T16:45:57.175Z,253.97
2019-03-21T16:50:58.858Z,230.97
2019-03-21T16:56:01.465Z,207.30
2019-03-21T17:01:03.313Z,258.77
2019-03-21T17:06:05.361Z,268.37
2019-03-21T17:11:07.532Z,240.13
2019-03-21T17:16:09.257Z,252.30
2019-03-21T17:21:10.897Z,235.27
2019-03-21T17:26:12.623Z,246.23
2019-03-21T17:31:14.249Z,260.53
2019-03-21T17:36:16.415Z,270.97
2019-03-21T17:41:18.263Z,295.37
2019-03-21T17:46:19.999Z,275.83
2019-03-21T17:51:22.355Z,266.60
2019-03-21T17:56:24.305Z,199.10
2019-03-21T18:01:26.077Z,211.57
2019-03-21T18:06:28.127Z,258.70
2019-03-21T18:11:29.789Z,218.27
2019-03-21T18:16:31.438Z,268.27
2019-03-21T18:21:33.560Z,296.53
2019-03-21T18:26:35.244Z,307.10
2019-03-21T18:31:36.959Z,334.27
2019-03-21T18:36:38.949Z,325.43
2019-03-21T18:41:40.906Z,310.10
2019-03-21T18:46:43.151Z,252.40
2019-03-21T18:51:45.018Z,361.90
2019-03-21T18:56:47.163Z,354.63
2019-03-21T19:01:57.917Z,286.37
2019-03-21T19:06:53.129Z,267.40
2019-03-21T19:11:55.221Z,348.17
2019-03-21T19:16:57.028Z,289.73
2019-03-21T19:21:58.811Z,297.23
2019-03-21T19:27:00.619Z,254.33
2019-03-21T19:32:02.403Z,214.17
2019-03-21T19:37:04.299Z,239.03
2019-03-21T19:42:06.604Z,271.53
2019-03-21T19:47:08.365Z,279.07
2019-03-21T19:52:10.294Z,257.60
2019-03-21T19:57:12.592Z,283.13
2019-03-21T20:02:14.383Z,290.30
2019-03-21T20:07:16.060Z,287.97
2019-03-21T20:12:18.170Z,278.47
2019-03-21T20:17:19.767Z,307.30
2019-03-21T20:22:21.467Z,289.27
2019-03-21T20:27:23.272Z,283.70
2019-03-21T20:32:24.914Z,241.33
2019-03-21T20:37:27.207Z,263.17
2019-03-21T20:42:28.964Z,333.20
2019-03-21T20:47:30.619Z,291.93
2019-03-21T20:52:34.439Z,260.27
2019-03-21T20:57:37.673Z,370.57
2019-03-21T21:02:39.672Z,310.20
2019-03-21T21:07:41.356Z,186.77
2019-03-21T21:12:43.709Z,399.53
2019-03-21T21:17:45.303Z,396.27
2019-03-21T21:22:47.032Z,442.37
2019-03-21T21:27:50.230Z,493.00
2019-03-21T21:32:52.151Z,466.57
2019-03-21T21:37:54.206Z,751.33
2019-03-21T21:42:55.993Z,647.10
2019-03-21T21:47:57.663Z,981.60
2019-03-21T21:52:59.345Z,440.67
2019-03-21T21:58:01.759Z,845.57
2019-03-21T22:03:03.481Z,764.70
2019-03-21T22:08:05.185Z,1150.33
2019-03-21T22:13:07.779Z,980.87
2019-03-21T22:18:09.786Z,850.10
2019-03-21T22:23:11.480Z,457.60
2019-03-21T22:28:13.121Z,866.10
2019-03-21T22:33:14.797Z,710.10
2019-03-21T22:38:16.404Z,748.30
2019-03-21T22:43:18.381Z,410.90
2019-03-21T22:48:20.042Z,668.93
2019-03-21T22:53:21.717Z,476.03
2019-03-21T22:58:31.586Z,586.80
2019-03-21T23:03:27.233Z,501.40
2019-03-21T23:08:28.909Z,578.87
2019-03-21T23:13:30.580Z,624.07
2019-03-21T23:18:32.368Z,672.97
2019-03-21T23:23:34.149Z,532.73
2019-03-21T23:28:35.923Z,864.57
2019-03-21T23:33:37.702Z,662.17
2019-03-21T23:38:39.787Z,534.27
2019-03-21T23:43:41.575Z,975.87
2019-03-21T23:48:43.350Z,413.63
2019-03-21T23:53:45.086Z,552.17
2019-03-21T23:58:46.918Z,521.20
